createdAt,value
2018-01-16T00:00:49.211Z,95.80
2018-01-16T00:01:51.739Z,95.80
2018-01-16T00:02:54.245Z,95.90
2018-01-16T00:03:56.757Z,95.90
2018-01-16T00:04:59.304Z,95.90
2018-01-16T00:06:01.826Z,96.00
2018-01-16T00:07:04.402Z,96.00
2018-01-16T00:08:06.909Z,95.90
2018-01-16T00:09:09.429Z,96.10
2018-01-16T00:10:11.945Z,96.10
2018-01-16T00:11:14.456Z,96.10
2018-01-16T00:12:17.018Z,96.10
2018-01-16T00:13:19.545Z,96.10
2018-01-16T00:14:22.058Z,96.20
2018-01-16T00:15:24.575Z,96.20
2018-01-16T00:16:27.097Z,96.20
2018-01-16T00:17:29.646Z,96.20
2018-01-16T00:18:32.158Z,96.60
2018-01-16T00:19:34.679Z,96.30
2018-01-16T00:20:37.200Z,96.30
2018-01-16T00:21:39.711Z,96.40
2018-01-16T00:22:42.272Z,96.40
2018-01-16T00:23:44.787Z,96.50
2018-01-16T00:24:47.322Z,96.50
2018-01-16T00:25:49.877Z,96.40
2018-01-16T00:26:52.390Z,96.50
2018-01-16T00:27:54.912Z,96.50
2018-01-16T00:28:57.434Z,96.50
2018-01-16T00:29:59.981Z,96.50
2018-01-16T00:31:02.784Z,96.50
2018-01-16T00:32:05.303Z,96.60
2018-01-16T00:33:08.568Z,96.60
2018-01-16T00:34:11.088Z,96.60
2018-01-16T00:35:13.630Z,96.50
2018-01-16T00:36:16.905Z,96.60
2018-01-16T00:37:20.199Z,96.70
2018-01-16T00:38:22.716Z,96.70
2018-01-16T00:39:25.232Z,96.70
2018-01-16T00:40:27.766Z,96.70
2018-01-16T00:41:30.280Z,96.70
2018-01-16T00:42:32.788Z,96.70
2018-01-16T00:43:35.306Z,96.60
2018-01-16T00:44:37.893Z,96.60
2018-01-16T00:45:40.407Z,96.50
2018-01-16T00:46:43.687Z,96.40
2018-01-16T00:47:46.201Z,96.40
2018-01-16T00:48:48.742Z,96.50
2018-01-16T00:49:51.301Z,96.50
2018-01-16T00:50:54.586Z,96.40
2018-01-16T00:51:57.862Z,96.50
2018-01-16T00:53:01.136Z,96.50
2018-01-16T00:54:03.650Z,96.50
2018-01-16T00:55:06.179Z,96.60
2018-01-16T00:56:09.504Z,96.40
2018-01-16T00:57:12.014Z,96.40
2018-01-16T00:58:14.525Z,96.60
2018-01-16T00:59:17.037Z,96.60
2018-01-16T01:00:19.577Z,96.70
2018-01-16T01:01:22.135Z,96.70
2018-01-16T01:02:24.653Z,96.70
2018-01-16T01:03:27.924Z,96.60
2018-01-16T01:04:30.437Z,96.60
2018-01-16T01:05:32.956Z,96.60
2018-01-16T01:06:35.508Z,96.60
2018-01-16T01:07:38.016Z,96.60
2018-01-16T01:08:40.530Z,96.60
2018-01-16T01:09:43.045Z,96.60
2018-01-16T01:10:45.566Z,96.70
2018-01-16T01:11:48.121Z,96.70
2018-01-16T01:12:50.904Z,96.80
2018-01-16T01:13:53.432Z,96.80
2018-01-16T01:14:55.944Z,96.80
2018-01-16T01:15:58.459Z,96.80
2018-01-16T01:17:00.965Z,96.80
2018-01-16T01:18:03.520Z,96.80
2018-01-16T01:19:06.092Z,96.80
2018-01-16T01:20:08.610Z,96.90
2018-01-16T01:21:11.888Z,96.70
2018-01-16T01:22:15.166Z,96.70
2018-01-16T01:23:18.473Z,96.70
2018-01-16T01:24:20.988Z,96.60
2018-01-16T01:25:23.529Z,96.60
2018-01-16T01:26:26.040Z,96.70
2018-01-16T01:27:28.556Z,96.70
2018-01-16T01:28:31.101Z,96.70
2018-01-16T01:29:33.621Z,96.70
2018-01-16T01:30:36.182Z,96.80
2018-01-16T01:31:38.704Z,96.90
2018-01-16T01:32:41.221Z,97.00
2018-01-16T01:33:43.736Z,97.00
2018-01-16T01:34:46.249Z,96.80
2018-01-16T01:35:48.792Z,97.10
2018-01-16T01:36:51.348Z,96.80
2018-01-16T01:37:53.876Z,96.80
2018-01-16T01:38:57.161Z,96.90
2018-01-16T01:40:00.444Z,96.90
2018-01-16T01:41:03.733Z,97.00
2018-01-16T01:42:07.079Z,97.30
2018-01-16T01:43:09.592Z,97.00
2018-01-16T01:44:12.115Z,97.10
2018-01-16T01:45:14.627Z,97.10
2018-01-16T01:46:17.140Z,97.60
2018-01-16T01:47:19.684Z,97.40
2018-01-16T01:48:22.236Z,97.60
2018-01-16T01:49:24.753Z,98.00
2018-01-16T01:50:27.265Z,97.90
2018-01-16T01:51:29.768Z,98.00
2018-01-16T01:52:32.281Z,98.00
2018-01-16T01:53:34.841Z,98.10
2018-01-16T01:54:38.111Z,98.30
2018-01-16T01:55:41.385Z,98.30
2018-01-16T01:56:43.903Z,98.20
2018-01-16T01:57:46.413Z,98.30
2018-01-16T01:58:48.960Z,98.30
2018-01-16T01:59:51.496Z,98.30
2018-01-16T02:00:54.012Z,98.20
2018-01-16T02:01:56.516Z,98.10
2018-01-16T02:02:59.032Z,98.10
2018-01-16T02:04:01.580Z,98.20
2018-01-16T02:05:04.095Z,98.20
2018-01-16T02:06:07.374Z,98.20
2018-01-16T02:07:10.660Z,98.10
2018-01-16T02:08:14.004Z,98.10
2018-01-16T02:09:16.514Z,98.10
2018-01-16T02:10:19.794Z,98.10
2018-01-16T02:11:23.079Z,98.20
2018-01-16T02:12:26.352Z,98.10
2018-01-16T02:13:29.660Z,98.10
2018-01-16T02:14:32.205Z,98.10
2018-01-16T02:15:35.484Z,98.20
2018-01-16T02:16:37.991Z,98.10
2018-01-16T02:17:40.504Z,98.10
2018-01-16T02:18:43.061Z,98.00
2018-01-16T02:19:45.568Z,98.00
2018-01-16T02:20:48.073Z,98.00
2018-01-16T02:21:50.583Z,98.10
2018-01-16T02:22:53.856Z,98.10
2018-01-16T02:23:56.413Z,98.10
2018-01-16T02:24:58.922Z,98.10
2018-01-16T02:26:01.441Z,98.10
2018-01-16T02:27:03.961Z,98.10
2018-01-16T02:28:06.475Z,98.10
2018-01-16T02:29:09.021Z,98.20
2018-01-16T02:30:12.311Z,98.10
2018-01-16T02:31:14.941Z,98.10
2018-01-16T02:32:17.514Z,98.20
2018-01-16T02:33:20.754Z,98.20
2018-01-16T02:34:23.302Z,98.20
2018-01-16T02:35:25.814Z,98.30
2018-01-16T02:36:28.336Z,98.30
2018-01-16T02:37:30.851Z,98.30
2018-01-16T02:38:33.360Z,98.20
2018-01-16T02:39:35.902Z,98.20
2018-01-16T02:40:38.420Z,98.30
2018-01-16T02:41:41.709Z,98.30
2018-01-16T02:42:44.988Z,98.30
2018-01-16T02:43:48.281Z,98.40
2018-01-16T02:44:51.570Z,98.30
2018-01-16T02:45:54.086Z,98.30
2018-01-16T02:46:56.593Z,98.30
2018-01-16T02:47:59.922Z,98.30
2018-01-16T02:49:02.429Z,98.30
2018-01-16T02:50:04.946Z,98.30
2018-01-16T02:51:07.456Z,98.40
2018-01-16T02:52:09.986Z,98.40
2018-01-16T02:53:12.553Z,98.30
2018-01-16T02:54:15.856Z,98.30
2018-01-16T02:55:18.369Z,98.30
2018-01-16T02:56:20.894Z,98.20
2018-01-16T02:57:23.408Z,98.10
2018-01-16T02:58:25.949Z,98.10
2018-01-16T02:59:29.228Z,97.90
2018-01-16T03:00:32.542Z,98.00
2018-01-16T03:01:35.059Z,98.00
2018-01-16T03:02:37.576Z,98.10
2018-01-16T03:03:40.090Z,98.00
2018-01-16T03:04:42.656Z,98.00
2018-01-16T03:05:45.181Z,98.10
2018-01-16T03:06:47.689Z,98.20
2018-01-16T03:07:50.257Z,98.20
2018-01-16T03:08:52.780Z,98.10
2018-01-16T03:11:04.328Z,98.10
2018-01-16T03:12:07.609Z,97.60
2018-01-16T03:13:10.130Z,97.60
2018-01-16T03:14:12.677Z,97.70
2018-01-16T03:15:15.283Z,97.80
2018-01-16T03:16:17.920Z,97.90
2018-01-16T03:17:20.425Z,98.00
2018-01-16T03:18:22.984Z,98.00
2018-01-16T03:19:25.501Z,97.70
2018-01-16T03:20:28.017Z,97.50
2018-01-16T03:21:30.525Z,97.70
2018-01-16T03:22:33.033Z,97.60
2018-01-16T03:23:35.600Z,97.20
2018-01-16T03:24:38.120Z,97.10
2018-01-16T03:25:40.623Z,97.20
2018-01-16T03:26:43.140Z,97.30
2018-01-16T03:27:46.416Z,97.30
2018-01-16T03:28:49.753Z,96.80
2018-01-16T03:29:52.264Z,96.80
2018-01-16T03:30:54.764Z,96.90
2018-01-16T03:31:57.273Z,96.70
2018-01-16T03:32:59.795Z,96.90
2018-01-16T03:34:02.353Z,96.50
2018-01-16T03:35:04.863Z,96.50
2018-01-16T03:36:07.375Z,96.20
2018-01-16T03:37:10.658Z,95.80
2018-01-16T03:38:13.929Z,95.90
2018-01-16T03:39:17.298Z,95.20
2018-01-16T03:40:19.812Z,95.20
2018-01-16T03:41:22.374Z,94.80
2018-01-16T03:42:24.883Z,94.90
2018-01-16T03:43:27.395Z,95.00
2018-01-16T03:44:29.911Z,95.00
2018-01-16T03:45:32.423Z,94.90
2018-01-16T03:46:35.740Z,94.70
2018-01-16T03:47:38.252Z,94.70
2018-01-16T03:48:40.772Z,94.70
2018-01-16T03:49:43.290Z,94.50
2018-01-16T03:50:46.564Z,94.60
2018-01-16T03:51:49.111Z,94.60
2018-01-16T03:52:51.623Z,94.70
2018-01-16T03:53:54.172Z,94.60
2018-01-16T03:54:57.447Z,94.80
2018-01-16T03:55:59.960Z,94.80
2018-01-16T03:57:02.474Z,94.70
2018-01-16T03:58:04.988Z,94.80
2018-01-16T03:59:08.394Z,94.80
2018-01-16T04:00:10.904Z,94.80
2018-01-16T04:01:14.180Z,94.70
2018-01-16T04:02:16.693Z,94.70
2018-01-16T04:03:19.365Z,94.60
2018-01-16T04:04:21.924Z,94.60
2018-01-16T04:05:24.436Z,94.60
2018-01-16T04:06:26.961Z,94.70
2018-01-16T04:07:29.476Z,94.60
2018-01-16T04:08:32.757Z,95.10
2018-01-16T04:09:35.313Z,94.70
2018-01-16T04:10:37.824Z,94.90
2018-01-16T04:11:40.333Z,95.00
2018-01-16T04:12:42.841Z,95.00
2018-01-16T04:13:46.121Z,95.00
2018-01-16T04:14:49.456Z,95.10
2018-01-16T04:15:51.972Z,95.10
2018-01-16T04:16:55.245Z,95.40
2018-01-16T04:17:58.523Z,95.30
2018-01-16T04:19:01.038Z,95.30
2018-01-16T04:20:04.424Z,95.20
2018-01-16T04:21:06.942Z,95.20
2018-01-16T04:22:10.225Z,95.50
2018-01-16T04:23:12.736Z,95.20
2018-01-16T04:24:15.240Z,95.30
2018-01-16T04:25:17.793Z,95.30
2018-01-16T04:26:20.304Z,95.20
2018-01-16T04:27:23.589Z,95.10
2018-01-16T04:28:26.869Z,95.10
2018-01-16T04:29:30.149Z,95.10
2018-01-16T04:30:33.486Z,94.90
2018-01-16T04:31:36.011Z,94.90
2018-01-16T04:32:39.286Z,95.10
2018-01-16T04:33:42.561Z,95.10
2018-01-16T04:34:45.068Z,95.10
2018-01-16T04:35:48.381Z,95.10
2018-01-16T04:36:50.899Z,95.10
2018-01-16T04:37:53.408Z,95.10
2018-01-16T04:38:55.912Z,95.10
2018-01-16T04:39:59.220Z,95.30
2018-01-16T04:41:01.738Z,95.30
2018-01-16T04:42:04.249Z,95.30
2018-01-16T04:43:06.764Z,95.30
2018-01-16T04:44:09.317Z,95.40
2018-01-16T04:45:11.828Z,95.40
2018-01-16T04:46:15.118Z,95.80
2018-01-16T04:47:18.397Z,95.50
2018-01-16T04:48:21.733Z,95.50
2018-01-16T04:49:24.278Z,95.50
2018-01-16T04:50:26.822Z,95.60
2018-01-16T04:51:30.101Z,95.70
2018-01-16T04:52:33.385Z,95.80
2018-01-16T04:53:36.696Z,96.00
2018-01-16T04:54:39.217Z,96.00
2018-01-16T04:55:41.735Z,96.00
2018-01-16T04:56:44.236Z,96.00
2018-01-16T04:57:46.749Z,96.00
2018-01-16T04:58:49.296Z,95.90
2018-01-16T04:59:52.570Z,96.00
2018-01-16T05:00:55.849Z,95.90
2018-01-16T05:01:59.165Z,95.80
2018-01-16T05:03:02.425Z,95.90
2018-01-16T05:04:05.764Z,95.80
2018-01-16T05:05:08.269Z,95.80
2018-01-16T05:06:11.546Z,95.60
2018-01-16T05:07:14.058Z,95.50
2018-01-16T05:08:16.572Z,95.60
2018-01-16T05:09:19.132Z,95.60
2018-01-16T05:10:21.636Z,95.50
2018-01-16T05:11:24.173Z,95.50
2018-01-16T05:12:26.681Z,95.60
2018-01-16T05:13:29.236Z,95.60
2018-01-16T05:14:31.751Z,95.60
2018-01-16T05:15:34.264Z,95.60
2018-01-16T05:16:37.540Z,95.50
2018-01-16T05:17:40.812Z,95.50
2018-01-16T05:18:44.127Z,95.30
2018-01-16T05:19:46.639Z,95.30
2018-01-16T05:20:49.157Z,95.30
2018-01-16T05:21:51.662Z,95.30
2018-01-16T05:22:54.198Z,95.20
2018-01-16T05:23:56.757Z,95.40
2018-01-16T05:24:59.264Z,95.10
2018-01-16T05:26:01.780Z,95.20
2018-01-16T05:27:04.288Z,95.10
2018-01-16T05:28:06.800Z,95.20
2018-01-16T05:29:10.121Z,95.20
2018-01-16T05:30:12.633Z,95.20
2018-01-16T05:31:15.137Z,95.30
2018-01-16T05:32:17.652Z,95.30
2018-01-16T05:33:20.170Z,95.20
2018-01-16T05:34:22.716Z,95.30
2018-01-16T05:35:25.312Z,95.20
2018-01-16T05:36:27.825Z,95.20
2018-01-16T05:37:30.333Z,95.50
2018-01-16T05:38:32.847Z,95.20
2018-01-16T05:39:35.403Z,95.10
2018-01-16T05:40:37.905Z,95.10
2018-01-16T05:41:41.180Z,94.80
2018-01-16T05:42:44.465Z,94.70
2018-01-16T05:43:47.789Z,94.60
2018-01-16T05:44:50.329Z,94.60
2018-01-16T05:45:53.613Z,95.00
2018-01-16T05:46:56.118Z,94.70
2018-01-16T05:47:58.630Z,94.60
2018-01-16T05:49:01.950Z,95.00
2018-01-16T05:50:04.467Z,94.90
2018-01-16T05:51:06.978Z,95.00
2018-01-16T05:52:09.483Z,95.10
2018-01-16T05:53:11.992Z,95.20
2018-01-16T05:54:14.546Z,95.20
2018-01-16T05:55:17.823Z,95.10
2018-01-16T05:56:21.097Z,95.30
2018-01-16T05:57:23.611Z,95.20
2018-01-16T05:58:26.180Z,95.10
2018-01-16T05:59:28.727Z,95.00
2018-01-16T06:00:31.245Z,94.90
2018-01-16T06:01:33.753Z,94.90
2018-01-16T06:02:37.027Z,95.10
2018-01-16T06:03:40.316Z,95.20
2018-01-16T06:04:43.624Z,95.10
2018-01-16T06:05:46.137Z,95.00
2018-01-16T06:06:48.652Z,95.00
2018-01-16T06:07:51.215Z,95.00
2018-01-16T06:08:53.752Z,95.00
2018-01-16T06:09:57.034Z,94.90
2018-01-16T06:11:00.303Z,95.10
2018-01-16T06:12:02.816Z,94.80
2018-01-16T06:13:05.377Z,94.90
2018-01-16T06:14:07.880Z,94.80
2018-01-16T06:15:10.385Z,94.80
2018-01-16T06:16:13.657Z,94.80
2018-01-16T06:17:16.171Z,94.80
2018-01-16T06:18:18.742Z,95.00
2018-01-16T06:19:21.261Z,94.70
2018-01-16T06:20:24.541Z,94.80
2018-01-16T06:21:27.824Z,94.90
2018-01-16T06:22:30.340Z,94.90
2018-01-16T06:23:32.899Z,95.10
2018-01-16T06:24:35.420Z,95.10
2018-01-16T06:25:37.930Z,95.20
2018-01-16T06:26:40.428Z,95.40
2018-01-16T06:27:42.943Z,95.50
2018-01-16T06:28:45.488Z,95.70
2018-01-16T06:29:47.996Z,95.80
2018-01-16T06:30:50.505Z,95.90
2018-01-16T06:31:53.025Z,95.70
2018-01-16T06:32:55.532Z,95.80
2018-01-16T06:33:58.091Z,95.90
2018-01-16T06:35:00.610Z,95.60
2018-01-16T06:36:03.130Z,95.40
2018-01-16T06:37:05.646Z,95.30
2018-01-16T06:38:08.161Z,95.30
2018-01-16T06:39:10.716Z,95.20
2018-01-16T06:40:13.235Z,94.70
2018-01-16T06:41:15.743Z,94.60
2018-01-16T06:42:18.256Z,94.30
2018-01-16T06:43:20.795Z,94.20
2018-01-16T06:44:23.478Z,93.60
2018-01-16T06:45:26.846Z,93.80
2018-01-16T06:46:29.357Z,93.80
2018-01-16T06:47:31.869Z,93.50
2018-01-16T06:48:34.378Z,93.60
2018-01-16T06:49:37.696Z,93.60
2018-01-16T06:50:40.218Z,93.70
2018-01-16T06:51:43.505Z,94.20
2018-01-16T06:52:46.780Z,94.60
2018-01-16T06:53:50.058Z,94.80
2018-01-16T06:54:52.624Z,94.80
2018-01-16T06:55:55.136Z,94.90
2018-01-16T06:56:57.649Z,94.80
2018-01-16T06:58:00.183Z,95.30
2018-01-16T06:59:02.708Z,95.10
2018-01-16T07:00:06.024Z,95.10
2018-01-16T07:01:08.548Z,95.10
2018-01-16T07:02:11.882Z,95.30
2018-01-16T07:03:14.366Z,95.30
2018-01-16T07:04:16.888Z,95.40
2018-01-16T07:05:19.442Z,95.60
2018-01-16T07:06:21.952Z,95.50
2018-01-16T07:07:24.461Z,95.70
2018-01-16T07:08:27.738Z,95.70
2018-01-16T07:09:31.022Z,95.70
2018-01-16T07:10:34.340Z,95.90
2018-01-16T07:11:36.865Z,95.90
2018-01-16T07:12:40.169Z,95.90
2018-01-16T07:13:42.692Z,95.80
2018-01-16T07:14:45.214Z,95.90
2018-01-16T07:15:47.755Z,95.90
2018-01-16T07:16:51.046Z,96.10
2018-01-16T07:17:54.332Z,96.20
2018-01-16T07:18:57.635Z,96.20
2018-01-16T07:20:00.150Z,96.20
2018-01-16T07:21:02.700Z,96.20
2018-01-16T07:22:05.214Z,96.30
2018-01-16T07:23:08.504Z,96.30
2018-01-16T07:24:11.781Z,96.30
2018-01-16T07:25:15.068Z,96.30
2018-01-16T07:26:17.637Z,96.30
2018-01-16T07:27:20.904Z,96.50
2018-01-16T07:28:24.208Z,96.60
2018-01-16T07:29:26.731Z,96.40
2018-01-16T07:30:29.402Z,96.40
2018-01-16T07:31:31.965Z,96.20
2018-01-16T07:32:34.468Z,96.20
2018-01-16T07:33:36.988Z,96.20
2018-01-16T07:34:39.500Z,96.00
2018-01-16T07:35:42.781Z,95.80
2018-01-16T07:36:46.093Z,95.70
2018-01-16T07:37:48.619Z,95.70
2018-01-16T07:38:51.897Z,95.70
2018-01-16T07:39:54.413Z,95.70
2018-01-16T07:40:56.922Z,95.70
2018-01-16T07:41:59.485Z,95.30
2018-01-16T07:43:01.989Z,95.40
2018-01-16T07:44:04.504Z,95.30
2018-01-16T07:45:07.017Z,95.10
2018-01-16T07:46:09.533Z,95.10
2018-01-16T07:47:12.085Z,95.00
2018-01-16T07:48:14.592Z,95.10
2018-01-16T07:49:17.881Z,95.00
2018-01-16T07:50:21.153Z,95.10
2018-01-16T07:51:23.660Z,95.10
2018-01-16T07:52:26.276Z,95.10
2018-01-16T07:53:28.789Z,95.10
2018-01-16T07:54:31.300Z,95.10
2018-01-16T07:55:33.817Z,95.00
2018-01-16T07:56:36.343Z,95.10
2018-01-16T07:57:38.924Z,95.10
2018-01-16T07:58:42.202Z,95.20
2018-01-16T07:59:44.718Z,95.20
2018-01-16T08:00:47.232Z,95.30
2018-01-16T08:01:49.742Z,95.20
2018-01-16T08:02:52.321Z,95.30
2018-01-16T08:03:54.825Z,95.30
2018-01-16T08:04:57.332Z,95.20
2018-01-16T08:05:59.836Z,95.20
2018-01-16T08:07:02.342Z,95.20
2018-01-16T08:08:04.907Z,95.30
2018-01-16T08:09:08.185Z,95.40
2018-01-16T08:10:11.456Z,95.30
2018-01-16T08:11:13.964Z,95.30
2018-01-16T08:12:16.467Z,95.20
2018-01-16T08:13:19.037Z,95.20
2018-01-16T08:14:21.541Z,95.20
2018-01-16T08:15:24.809Z,95.00
2018-01-16T08:16:27.409Z,95.00
2018-01-16T08:17:29.912Z,95.00
2018-01-16T08:18:32.707Z,95.00
2018-01-16T08:19:35.218Z,95.00
2018-01-16T08:20:37.728Z,95.00
2018-01-16T08:21:40.233Z,94.90
2018-01-16T08:22:42.752Z,94.90
2018-01-16T08:23:45.297Z,94.80
2018-01-16T08:24:47.804Z,94.70
2018-01-16T08:25:51.084Z,95.20
2018-01-16T08:26:53.591Z,94.90
2018-01-16T08:27:56.101Z,95.00
2018-01-16T08:28:58.671Z,95.00
2018-01-16T08:30:01.190Z,94.90
2018-01-16T08:31:03.699Z,94.90
2018-01-16T08:32:06.217Z,94.80
2018-01-16T08:33:08.729Z,94.80
2018-01-16T08:34:11.351Z,94.70
2018-01-16T08:35:13.861Z,94.60
2018-01-16T08:36:16.372Z,94.60
2018-01-16T08:37:18.896Z,94.60
2018-01-16T08:38:21.410Z,94.50
2018-01-16T08:39:23.981Z,94.30
2018-01-16T08:40:26.492Z,94.30
2018-01-16T08:41:29.040Z,94.50
2018-01-16T08:42:31.543Z,94.40
2018-01-16T08:43:34.824Z,94.20
2018-01-16T08:44:37.380Z,94.20
2018-01-16T08:45:39.897Z,93.80
2018-01-16T08:46:42.404Z,93.80
2018-01-16T08:47:44.929Z,93.40
2018-01-16T08:48:47.437Z,93.90
2018-01-16T08:49:49.998Z,94.10
2018-01-16T08:50:52.521Z,94.30
2018-01-16T08:51:55.029Z,94.30
2018-01-16T08:52:57.544Z,93.50
2018-01-16T08:54:00.073Z,93.10
2018-01-16T08:55:02.624Z,93.80
2018-01-16T08:56:05.137Z,93.40
2018-01-16T08:57:08.411Z,94.50
2018-01-16T08:58:11.684Z,94.00
2018-01-16T08:59:14.185Z,94.00
2018-01-16T09:00:16.753Z,93.90
2018-01-16T09:01:19.260Z,94.10
2018-01-16T09:02:21.770Z,93.90
2018-01-16T09:03:24.286Z,94.40
2018-01-16T09:04:26.810Z,94.40
2018-01-16T09:05:29.516Z,94.40
2018-01-16T09:06:32.024Z,94.50
2018-01-16T09:07:35.310Z,95.00
2018-01-16T09:08:38.585Z,94.80
2018-01-16T09:09:41.097Z,94.80
2018-01-16T09:10:43.661Z,94.80
2018-01-16T09:11:46.169Z,95.20
2018-01-16T09:12:48.681Z,95.30
2018-01-16T09:13:51.190Z,95.30
2018-01-16T09:14:53.701Z,95.50
2018-01-16T09:15:56.249Z,95.20
2018-01-16T09:16:59.520Z,95.40
2018-01-16T09:18:02.809Z,95.70
2018-01-16T09:19:06.238Z,95.50
2018-01-16T09:20:08.745Z,95.50
2018-01-16T09:21:11.307Z,95.40
2018-01-16T09:22:13.812Z,95.70
2018-01-16T09:23:16.324Z,95.70
2018-01-16T09:24:18.836Z,95.70
2018-01-16T09:25:21.348Z,95.80
2018-01-16T09:26:23.904Z,95.80
2018-01-16T09:27:26.455Z,96.00
2018-01-16T09:28:28.960Z,96.00
2018-01-16T09:29:31.513Z,96.10
2018-01-16T09:30:34.025Z,96.30
2018-01-16T09:31:37.333Z,96.30
2018-01-16T09:32:39.839Z,96.30
2018-01-16T09:33:42.352Z,96.40
2018-01-16T09:34:45.620Z,96.30
2018-01-16T09:35:48.953Z,96.30
2018-01-16T09:36:51.464Z,96.30
2018-01-16T09:37:53.973Z,96.40
2018-01-16T09:38:56.486Z,96.60
2018-01-16T09:39:58.997Z,96.50
2018-01-16T09:41:01.553Z,96.60
2018-01-16T09:42:04.070Z,96.70
2018-01-16T09:43:06.577Z,96.70
2018-01-16T09:44:09.695Z,96.90
2018-01-16T09:45:12.213Z,96.90
2018-01-16T09:46:15.533Z,96.90
2018-01-16T09:47:18.049Z,96.90
2018-01-16T09:48:20.571Z,97.10
2018-01-16T09:49:23.083Z,97.20
2018-01-16T09:50:25.593Z,97.20
2018-01-16T09:51:28.153Z,97.10
2018-01-16T09:52:30.660Z,97.20
2018-01-16T09:53:33.168Z,97.00
2018-01-16T09:54:36.440Z,97.00
2018-01-16T09:55:39.721Z,97.10
2018-01-16T09:56:43.047Z,97.20
2018-01-16T09:57:45.552Z,97.20
2018-01-16T09:58:48.060Z,97.20
2018-01-16T09:59:50.571Z,97.30
2018-01-16T10:00:53.080Z,97.40
2018-01-16T10:01:56.401Z,97.50
2018-01-16T10:02:58.918Z,97.50
2018-01-16T10:04:02.194Z,97.50
2018-01-16T10:05:04.704Z,97.50
2018-01-16T10:06:07.209Z,97.60
2018-01-16T10:07:09.748Z,97.60
2018-01-16T10:08:12.300Z,98.00
2018-01-16T10:09:14.808Z,97.70
2018-01-16T10:10:17.322Z,97.30
2018-01-16T10:11:19.841Z,97.30
2018-01-16T10:12:22.354Z,97.50
2018-01-16T10:13:24.905Z,97.40
2018-01-16T10:14:27.424Z,97.10
2018-01-16T10:15:29.931Z,97.20
2018-01-16T10:16:33.214Z,96.90
2018-01-16T10:17:36.489Z,97.00
2018-01-16T10:18:39.894Z,97.30
2018-01-16T10:19:42.403Z,97.20
2018-01-16T10:20:44.908Z,97.40
2018-01-16T10:21:48.180Z,97.30
2018-01-16T10:22:50.686Z,97.20
2018-01-16T10:23:53.250Z,97.20
2018-01-16T10:24:55.761Z,97.40
2018-01-16T10:25:58.274Z,97.50
2018-01-16T10:27:00.780Z,97.60
2018-01-16T10:28:03.284Z,97.10
2018-01-16T10:29:06.601Z,96.80
2018-01-16T10:30:09.114Z,97.10
2018-01-16T10:31:11.733Z,96.60
2018-01-16T10:32:14.240Z,96.60
2018-01-16T10:33:16.749Z,96.60
2018-01-16T10:34:20.074Z,96.30
2018-01-16T10:35:22.593Z,96.30
2018-01-16T10:36:25.865Z,95.50
2018-01-16T10:37:29.148Z,95.50
2018-01-16T10:38:32.428Z,95.10
2018-01-16T10:39:34.989Z,94.80
2018-01-16T10:40:37.505Z,94.40
2018-01-16T10:41:40.043Z,94.20
2018-01-16T10:42:43.322Z,94.00
2018-01-16T10:43:46.637Z,94.00
2018-01-16T10:44:49.145Z,94.00
2018-01-16T10:45:51.658Z,93.10
2018-01-16T10:46:54.168Z,93.10
2018-01-16T10:47:56.689Z,93.20
2018-01-16T10:48:59.239Z,93.20
2018-01-16T10:50:02.518Z,94.40
2018-01-16T10:51:05.797Z,94.20
2018-01-16T10:52:09.109Z,94.10
2018-01-16T10:53:11.621Z,94.10
2018-01-16T10:54:14.172Z,94.00
2018-01-16T10:55:16.688Z,94.50
2018-01-16T10:56:19.958Z,94.20
2018-01-16T10:57:23.241Z,94.10
2018-01-16T10:58:26.558Z,94.30
2018-01-16T10:59:29.104Z,94.30
2018-01-16T11:00:32.389Z,94.40
2018-01-16T11:01:35.663Z,94.60
2018-01-16T11:02:38.948Z,94.70
2018-01-16T11:03:42.289Z,94.70
2018-01-16T11:04:44.907Z,94.70
2018-01-16T11:05:47.393Z,94.90
2018-01-16T11:06:50.031Z,94.70
2018-01-16T11:07:53.302Z,94.50
2018-01-16T11:08:55.813Z,94.50
2018-01-16T11:09:58.364Z,94.40
2018-01-16T11:11:00.881Z,94.40
2018-01-16T11:12:03.432Z,94.40
2018-01-16T11:13:05.947Z,94.70
2018-01-16T11:14:09.817Z,94.90
2018-01-16T11:15:12.321Z,94.90
2018-01-16T11:16:15.599Z,95.70
2018-01-16T11:17:18.909Z,95.10
2018-01-16T11:18:22.184Z,95.00
2018-01-16T11:19:24.697Z,95.00
2018-01-16T11:20:27.204Z,95.00
2018-01-16T11:21:30.476Z,95.20
2018-01-16T11:22:33.790Z,95.40
2018-01-16T11:23:36.329Z,95.40
2018-01-16T11:24:39.646Z,94.80
2018-01-16T11:25:42.291Z,94.70
2018-01-16T11:26:45.571Z,94.80
2018-01-16T11:27:48.849Z,95.40
2018-01-16T11:28:52.132Z,95.70
2018-01-16T11:29:55.454Z,95.50
2018-01-16T11:30:57.980Z,95.50
2018-01-16T11:32:01.256Z,95.70
2018-01-16T11:33:03.765Z,95.70
2018-01-16T11:34:06.269Z,96.30
2018-01-16T11:35:08.809Z,95.80
2018-01-16T11:36:11.333Z,96.10
2018-01-16T11:37:14.667Z,95.90
2018-01-16T11:38:17.180Z,95.80
2018-01-16T11:39:20.464Z,95.90
2018-01-16T11:40:23.745Z,95.80
2018-01-16T11:41:26.275Z,95.80
2018-01-16T11:42:28.843Z,96.20
2018-01-16T11:43:31.345Z,96.10
2018-01-16T11:44:34.625Z,97.30
2018-01-16T11:45:37.916Z,96.20
2018-01-16T11:46:41.194Z,95.20
2018-01-16T11:47:44.518Z,94.10
2018-01-16T11:48:47.796Z,93.50
2018-01-16T11:49:50.309Z,93.50
2018-01-16T11:50:52.834Z,92.80
2018-01-16T11:51:55.354Z,93.10
2018-01-16T11:52:58.681Z,93.80
2018-01-16T11:54:01.196Z,93.80
2018-01-16T11:55:04.477Z,94.70
2018-01-16T11:56:06.991Z,94.40
2018-01-16T11:57:09.500Z,94.90
2018-01-16T11:58:12.064Z,94.70
2018-01-16T11:59:14.589Z,95.50
2018-01-16T12:00:17.105Z,95.60
2018-01-16T12:01:19.616Z,96.00
2018-01-16T12:02:22.121Z,95.50
2018-01-16T12:03:24.685Z,95.10
2018-01-16T12:04:27.197Z,95.40
2018-01-16T12:05:29.701Z,95.50
2018-01-16T12:06:32.212Z,94.80
2018-01-16T12:07:35.497Z,94.80
2018-01-16T12:08:38.050Z,94.80
2018-01-16T12:09:40.559Z,94.90
2018-01-16T12:10:43.067Z,95.00
2018-01-16T12:11:45.572Z,94.90
2018-01-16T12:12:48.845Z,95.00
2018-01-16T12:13:52.166Z,95.00
2018-01-16T12:14:54.712Z,95.00
2018-01-16T12:15:57.993Z,95.10
2018-01-16T12:17:00.501Z,95.10
2018-01-16T12:18:03.014Z,95.10
2018-01-16T12:19:06.335Z,95.10
2018-01-16T12:20:08.844Z,95.10
2018-01-16T12:21:11.356Z,95.20
2018-01-16T12:22:13.873Z,94.90
2018-01-16T12:23:16.384Z,94.90
2018-01-16T12:24:18.941Z,94.90
2018-01-16T12:25:21.461Z,95.10
2018-01-16T12:26:23.969Z,95.00
2018-01-16T12:27:26.477Z,94.70
2018-01-16T12:28:29.013Z,94.30
2018-01-16T12:29:31.585Z,94.60
2018-01-16T12:30:34.098Z,95.00
2018-01-16T12:31:36.620Z,95.00
2018-01-16T12:32:39.132Z,94.60
2018-01-16T12:33:41.640Z,94.10
2018-01-16T12:34:44.192Z,94.20
2018-01-16T12:35:46.706Z,94.60
2018-01-16T12:36:49.212Z,95.00
2018-01-16T12:37:52.494Z,94.60
2018-01-16T12:38:55.786Z,94.60
2018-01-16T12:39:58.330Z,94.60
2018-01-16T12:41:01.650Z,94.60
2018-01-16T12:42:04.224Z,94.60
2018-01-16T12:43:06.729Z,94.50
2018-01-16T12:44:09.548Z,94.20
2018-01-16T12:45:12.068Z,94.40
2018-01-16T12:46:14.586Z,94.30
2018-01-16T12:47:17.137Z,94.70
2018-01-16T12:48:20.416Z,93.80
2018-01-16T12:49:23.689Z,94.00
2018-01-16T12:50:26.204Z,94.00
2018-01-16T12:51:28.708Z,94.10
2018-01-16T12:52:31.252Z,94.30
2018-01-16T12:53:33.765Z,93.80
2018-01-16T12:54:37.061Z,94.00
2018-01-16T12:55:39.565Z,94.00
2018-01-16T12:56:42.116Z,94.50
2018-01-16T12:57:44.621Z,94.40
2018-01-16T12:58:47.240Z,94.10
2018-01-16T12:59:49.766Z,94.00
2018-01-16T13:00:52.278Z,94.40
2018-01-16T13:01:54.844Z,94.60
2018-01-16T13:02:57.361Z,94.20
2018-01-16T13:04:00.637Z,94.60
2018-01-16T13:05:03.145Z,94.60
2018-01-16T13:06:05.655Z,94.40
2018-01-16T13:07:08.204Z,94.20
2018-01-16T13:08:10.713Z,94.50
2018-01-16T13:09:14.000Z,94.50
2018-01-16T13:10:17.284Z,94.60
2018-01-16T13:11:20.569Z,94.70
2018-01-16T13:12:23.917Z,94.90
2018-01-16T13:13:26.419Z,94.60
2018-01-16T13:14:29.695Z,94.70
2018-01-16T13:15:32.980Z,95.20
2018-01-16T13:16:36.253Z,95.40
2018-01-16T13:17:38.806Z,95.10
2018-01-16T13:18:41.317Z,94.50
2018-01-16T13:19:43.824Z,94.40
2018-01-16T13:20:46.336Z,93.90
2018-01-16T13:21:49.667Z,94.60
2018-01-16T13:22:52.180Z,94.60
2018-01-16T13:23:55.470Z,94.40
2018-01-16T13:24:58.758Z,94.20
2018-01-16T13:26:02.037Z,94.20
2018-01-16T13:27:05.357Z,93.00
2018-01-16T13:28:07.909Z,93.00
2018-01-16T13:29:10.419Z,93.30